createdAt,value
2015-02-23T09:56:46.455Z,96621
2015-02-23T09:56:55.692Z,96627
2015-02-23T09:57:04.742Z,96627
2015-02-23T09:57:14.175Z,96621
2015-02-23T09:57:23.307Z,96615
2015-02-23T09:57:32.464Z,96621
2015-02-23T09:57:41.732Z,96615
2015-02-23T09:57:50.788Z,96621
2015-02-23T09:58:00.064Z,96627
2015-02-23T09:58:09.283Z,96621
2015-02-23T09:58:18.171Z,96624
2015-02-23T09:58:27.457Z,96618
2015-02-23T09:58:36.865Z,96624
2015-02-23T09:58:46.156Z,96624
2015-02-23T09:58:55.299Z,96630
2015-02-23T09:59:04.530Z,96627
2015-02-23T09:59:14.440Z,96630
2015-02-23T09:59:23.704Z,96630
2015-02-23T09:59:32.857Z,96630
2015-02-23T09:59:42.093Z,96636
2015-02-23T09:59:51.154Z,96627
2015-02-23T10:00:00.829Z,96627
2015-02-23T10:00:10.112Z,96633
2015-02-23T10:00:19.350Z,96621
2015-02-23T10:00:28.357Z,96633
2015-02-23T10:00:37.706Z,96627
2015-02-23T10:00:46.765Z,96625
2015-02-23T10:00:56.005Z,96627
2015-02-23T10:01:05.180Z,96625
2015-02-23T10:01:13.981Z,96622
2015-02-23T10:01:23.182Z,96625
2015-02-23T10:01:33.050Z,96622
2015-02-23T10:01:42.028Z,96622
2015-02-23T10:01:51.222Z,96613
2015-02-23T10:02:00.367Z,96613
2015-02-23T10:02:09.623Z,96619
2015-02-23T10:02:18.868Z,96619
2015-02-23T10:02:28.010Z,96622
2015-02-23T10:02:37.100Z,96625
2015-02-23T10:02:46.679Z,96616
2015-02-23T10:02:55.918Z,96613
2015-02-23T10:03:05.055Z,96613
2015-02-23T10:03:14.257Z,96616
2015-02-23T10:03:23.483Z,96610
2015-02-23T10:03:32.590Z,96607
2015-02-23T10:03:41.992Z,96627
2015-02-23T10:03:51.208Z,96621
2015-02-23T10:04:00.334Z,96621
2015-02-23T10:04:09.557Z,96621
2015-02-23T10:04:19.236Z,96615
2015-02-23T10:04:28.463Z,96618
2015-02-23T10:04:37.672Z,96614
2015-02-23T10:04:46.749Z,96614
2015-02-23T10:04:55.896Z,96608
2015-02-23T10:05:05.094Z,96622
2015-02-23T10:05:14.249Z,96616
2015-02-23T10:05:24.127Z,96610
2015-02-23T10:05:33.403Z,96622
2015-02-23T10:05:42.502Z,96613
2015-02-23T10:05:51.816Z,96624
2015-02-23T10:06:00.914Z,96612
2015-02-23T10:06:10.055Z,96612
2015-02-23T10:06:19.334Z,96609
2015-02-23T10:06:28.493Z,96615
2015-02-23T10:06:37.667Z,96621
2015-02-23T10:06:46.819Z,96606
2015-02-23T10:06:56.432Z,96612
2015-02-23T10:07:05.284Z,96617
2015-02-23T10:07:14.181Z,96612
2015-02-23T10:07:23.071Z,96614
2015-02-23T10:07:32.035Z,96617
2015-02-23T10:07:41.323Z,96611
2015-02-23T10:07:50.558Z,96617
2015-02-23T10:07:59.653Z,96620
2015-02-23T10:08:09.465Z,96623
2015-02-23T10:08:18.674Z,96617
2015-02-23T10:08:27.883Z,96608
2015-02-23T10:08:36.986Z,96617
2015-02-23T10:08:45.931Z,96614
2015-02-23T10:08:55.184Z,96611
2015-02-23T10:09:04.109Z,96611
2015-02-23T10:09:13.228Z,96619
2015-02-23T10:09:22.486Z,96610
2015-02-23T10:09:32.332Z,96610
2015-02-23T10:09:42.765Z,96610
2015-02-23T10:09:52.977Z,96616
2015-02-23T10:10:02.234Z,96613
2015-02-23T10:10:11.484Z,96613
2015-02-23T10:10:20.718Z,96619
2015-02-23T10:10:29.887Z,96607
2015-02-23T10:10:39.053Z,96613
2015-02-23T10:10:48.159Z,96601
2015-02-23T10:10:57.348Z,96613
2015-02-23T10:11:06.605Z,96613
2015-02-23T10:11:15.766Z,96618
2015-02-23T10:11:25.378Z,96621
2015-02-23T10:11:34.994Z,96618
2015-02-23T10:11:44.217Z,96618
2015-02-23T10:11:53.529Z,96618
2015-02-23T10:12:03.542Z,96615
2015-02-23T10:12:12.449Z,96621
2015-02-23T10:12:22.392Z,96627
2015-02-23T10:12:32.142Z,96618
2015-02-23T10:12:41.423Z,96621
2015-02-23T10:12:51.372Z,96627
2015-02-23T10:13:00.649Z,96618
2015-02-23T10:13:09.803Z,96621
2015-02-23T10:13:19.067Z,96621
2015-02-23T10:13:28.247Z,96609
2015-02-23T10:13:37.420Z,96621
2015-02-23T10:13:46.484Z,96618
2015-02-23T10:13:55.543Z,96618
2015-02-23T10:14:04.680Z,96615
2015-02-23T10:14:13.917Z,96618
2015-02-23T10:14:22.976Z,96627
2015-02-23T10:14:32.189Z,96621
2015-02-23T10:14:42.189Z,96615
2015-02-23T10:14:51.304Z,96615
2015-02-23T10:15:00.933Z,96612
2015-02-23T10:15:10.320Z,96609
2015-02-23T10:15:19.376Z,96630
2015-02-23T10:15:28.656Z,96623
2015-02-23T10:15:37.928Z,96620
2015-02-23T10:15:47.053Z,96617
2015-02-23T10:15:56.393Z,96615
2015-02-23T10:16:06.164Z,96617
2015-02-23T10:16:15.974Z,96621
2015-02-23T10:16:25.132Z,96612
2015-02-23T10:16:34.199Z,96618
2015-02-23T10:16:43.508Z,96609
2015-02-23T10:16:52.827Z,96618
2015-02-23T10:17:01.899Z,96620
2015-02-23T10:17:11.216Z,96615
2015-02-23T10:17:20.510Z,96612
2015-02-23T10:17:29.728Z,96618
2015-02-23T10:17:38.861Z,96615
2015-02-23T10:17:47.887Z,96617
2015-02-23T10:17:57.049Z,96617
2015-02-23T10:18:06.993Z,96612
2015-02-23T10:18:16.208Z,96617
2015-02-23T10:18:25.400Z,96620
2015-02-23T10:18:34.535Z,96609
2015-02-23T10:18:43.639Z,96611
2015-02-23T10:18:53.274Z,96617
2015-02-23T10:19:02.782Z,96631
2015-02-23T10:19:12.010Z,96617
2015-02-23T10:19:21.190Z,96617
2015-02-23T10:19:30.368Z,96617
2015-02-23T10:19:39.534Z,96614
2015-02-23T10:19:48.923Z,96628
2015-02-23T10:19:58.810Z,96628
2015-02-23T10:20:11.510Z,96620
2015-02-23T10:20:22.726Z,96626
2015-02-23T10:20:33.518Z,96626
2015-02-23T10:20:44.537Z,96608
2015-02-23T10:20:55.994Z,96620
2015-02-23T10:21:05.267Z,96637
2015-02-23T10:21:14.620Z,96629
2015-02-23T10:21:23.896Z,96620
2015-02-23T10:21:33.058Z,96634
2015-02-23T10:21:42.491Z,96617
2015-02-23T10:21:51.639Z,96631
2015-02-23T10:22:00.914Z,96634
2015-02-23T10:22:10.023Z,96631
2015-02-23T10:22:19.312Z,96625
2015-02-23T10:22:28.551Z,96628
2015-02-23T10:22:37.628Z,96628
2015-02-23T10:22:46.890Z,96631
2015-02-23T10:22:56.019Z,96622
2015-02-23T10:23:05.069Z,96625
2015-02-23T10:23:14.344Z,96617
2015-02-23T10:23:23.599Z,96626
2015-02-23T10:23:32.783Z,96637
2015-02-23T10:23:42.477Z,96628
2015-02-23T10:23:52.256Z,96634
2015-02-23T10:24:01.509Z,96626
2015-02-23T10:24:11.060Z,96631
2015-02-23T10:24:20.848Z,96626
2015-02-23T10:24:30.112Z,96626
2015-02-23T10:24:39.421Z,96634
2015-02-23T10:24:48.357Z,96629
2015-02-23T10:24:57.632Z,96631
2015-02-23T10:25:06.884Z,96629
2015-02-23T10:25:15.985Z,96626
2015-02-23T10:25:25.288Z,96643
2015-02-23T10:25:34.421Z,96634
2015-02-23T10:25:43.497Z,96626
2015-02-23T10:25:52.598Z,96626
2015-02-23T10:26:02.353Z,96625
2015-02-23T10:26:11.647Z,96623
2015-02-23T10:26:20.894Z,96626
2015-02-23T10:26:29.945Z,96628
2015-02-23T10:26:39.119Z,96631
2015-02-23T10:26:48.262Z,96625
2015-02-23T10:26:57.342Z,96628
2015-02-23T10:27:06.550Z,96630
2015-02-23T10:27:15.782Z,96621
2015-02-23T10:27:25.018Z,96627
2015-02-23T10:27:34.103Z,96630
2015-02-23T10:27:43.160Z,96630
2015-02-23T10:27:52.328Z,96621
2015-02-23T10:28:01.657Z,96610
2015-02-23T10:28:10.982Z,96610
2015-02-23T10:28:20.291Z,96612
2015-02-23T10:28:29.380Z,96618
2015-02-23T10:28:38.622Z,96615
2015-02-23T10:28:47.954Z,96621
2015-02-23T10:28:57.031Z,96639
2015-02-23T10:29:05.762Z,96624
2015-02-23T10:29:14.936Z,96625
2015-02-23T10:29:24.134Z,96622
2015-02-23T10:29:33.925Z,96613
2015-02-23T10:29:43.125Z,96613
2015-02-23T10:29:52.377Z,96619
2015-02-23T10:30:01.499Z,96613
2015-02-23T10:30:10.678Z,96621
2015-02-23T10:30:20.300Z,96618
2015-02-23T10:30:29.722Z,96615
2015-02-23T10:30:39.979Z,96618
2015-02-23T10:30:49.768Z,96615
2015-02-23T10:30:58.821Z,96613
2015-02-23T10:31:08.072Z,96622
2015-02-23T10:31:17.277Z,96627
2015-02-23T10:31:26.142Z,96622
2015-02-23T10:31:35.412Z,96622
2015-02-23T10:31:44.497Z,96613
2015-02-23T10:31:53.491Z,96625
2015-02-23T10:32:02.654Z,96628
2015-02-23T10:32:11.907Z,96607
2015-02-23T10:32:21.179Z,96616
2015-02-23T10:32:30.560Z,96622
2015-02-23T10:32:41.015Z,96628
2015-02-23T10:32:50.133Z,96631
2015-02-23T10:33:00.277Z,96625
2015-02-23T10:33:10.536Z,96625
2015-02-23T10:33:21.516Z,96625
2015-02-23T10:33:32.427Z,96631
2015-02-23T10:33:43.160Z,96628
2015-02-23T10:33:52.792Z,96625
2015-02-23T10:34:01.981Z,96625
2015-02-23T10:34:10.973Z,96634
2015-02-23T10:34:19.775Z,96628
2015-02-23T10:34:28.597Z,96628
2015-02-23T10:34:37.409Z,96631
2015-02-23T10:34:46.272Z,96631
2015-02-23T10:34:55.090Z,96628
2015-02-23T10:35:03.899Z,96633
2015-02-23T10:35:12.730Z,96633
2015-02-23T10:35:21.633Z,96622
2015-02-23T10:35:30.421Z,96639
2015-02-23T10:35:39.285Z,96622
2015-02-23T10:35:48.181Z,96628
2015-02-23T10:35:57.087Z,96636
2015-02-23T10:36:06.182Z,96624
2015-02-23T10:36:16.642Z,96627
2015-02-23T10:36:25.491Z,96627
2015-02-23T10:36:34.469Z,96630
2015-02-23T10:36:43.378Z,96627
2015-02-23T10:36:52.266Z,96627
2015-02-23T10:37:01.031Z,96630
2015-02-23T10:37:09.765Z,96630
2015-02-23T10:37:18.470Z,96624
2015-02-23T10:37:27.233Z,96627
2015-02-23T10:37:35.925Z,96624
2015-02-23T10:37:44.698Z,96624
2015-02-23T10:37:53.610Z,96633
2015-02-23T10:38:02.470Z,96619
2015-02-23T10:38:11.195Z,96621
2015-02-23T10:38:19.912Z,96627
2015-02-23T10:38:29.208Z,96613
2015-02-23T10:38:38.032Z,96622
2015-02-23T10:38:47.530Z,96627
2015-02-23T10:38:56.492Z,96618
2015-02-23T10:39:05.499Z,96624
2015-02-23T10:39:14.279Z,96624
2015-02-23T10:39:23.120Z,96616
2015-02-23T10:39:31.926Z,96633
2015-02-23T10:39:40.759Z,96630
2015-02-23T10:39:49.614Z,96625
2015-02-23T10:39:58.418Z,96627
2015-02-23T10:40:07.167Z,96624
2015-02-23T10:40:15.900Z,96625
2015-02-23T10:40:25.551Z,96619
2015-02-23T10:40:34.514Z,96624
2015-02-23T10:40:43.375Z,96630
2015-02-23T10:40:52.304Z,96624
2015-02-23T10:41:01.058Z,96624
2015-02-23T10:41:09.939Z,96624
2015-02-23T10:41:18.807Z,96630
2015-02-23T10:41:27.536Z,96630
2015-02-23T10:41:36.274Z,96636
2015-02-23T10:41:45.068Z,96612
2015-02-23T10:41:54.572Z,96621
2015-02-23T10:42:03.440Z,96630
2015-02-23T10:42:12.941Z,96624
2015-02-23T10:42:21.884Z,96618
2015-02-23T10:42:30.916Z,96638
2015-02-23T10:42:39.883Z,96621
2015-02-23T10:42:48.740Z,96632
2015-02-23T10:42:58.122Z,96632
2015-02-23T10:43:07.653Z,96632
2015-02-23T10:43:17.385Z,96635
2015-02-23T10:43:26.445Z,96624
2015-02-23T10:43:36.060Z,96632
2015-02-23T10:43:44.810Z,96638
2015-02-23T10:43:53.612Z,96626
2015-02-23T10:44:03.068Z,96637
2015-02-23T10:44:11.815Z,96646
2015-02-23T10:44:20.688Z,96628
2015-02-23T10:44:29.691Z,96634
2015-02-23T10:44:39.278Z,96625
2015-02-23T10:44:48.902Z,96640
2015-02-23T10:44:57.637Z,96643
2015-02-23T10:45:06.379Z,96640
2015-02-23T10:45:15.288Z,96634
2015-02-23T10:45:24.017Z,96642
2015-02-23T10:45:32.978Z,96637
2015-02-23T10:45:41.742Z,96628
2015-02-23T10:45:51.195Z,96642
2015-02-23T10:46:00.064Z,96634
2015-02-23T10:46:09.086Z,96645
2015-02-23T10:46:18.820Z,96637
2015-02-23T10:46:27.624Z,96640
2015-02-23T10:46:36.750Z,96640
2015-02-23T10:46:45.624Z,96640
2015-02-23T10:46:54.430Z,96634
2015-02-23T10:47:03.243Z,96637
2015-02-23T10:47:11.992Z,96634
2015-02-23T10:47:20.829Z,96640
2015-02-23T10:47:29.699Z,96634
2015-02-23T10:47:58.919Z,96639
2015-02-23T10:48:07.879Z,96641
2015-02-23T10:48:16.684Z,96639
2015-02-23T10:48:25.912Z,96643
2015-02-23T10:48:35.164Z,96637
2015-02-23T10:48:44.836Z,96648
2015-02-23T10:48:53.591Z,96631
2015-02-23T10:49:02.442Z,96628
2015-02-23T10:49:11.279Z,96632
2015-02-23T10:49:20.077Z,96635
2015-02-23T10:49:28.848Z,96640
2015-02-23T10:49:38.371Z,96643
2015-02-23T10:49:47.178Z,96636
2015-02-23T10:49:57.479Z,96635
2015-02-23T10:50:06.266Z,96646
2015-02-23T10:50:15.185Z,96640
2015-02-23T10:50:24.045Z,96649
2015-02-23T10:50:32.955Z,96649
2015-02-23T10:50:41.690Z,96640
2015-02-23T10:50:50.880Z,96642
2015-02-23T10:50:59.894Z,96637
2015-02-23T10:51:10.155Z,96634
2015-02-23T10:51:19.122Z,96634
2015-02-23T10:51:27.965Z,96652
2015-02-23T10:51:36.786Z,96649
2015-02-23T10:51:45.654Z,96641
2015-02-23T10:51:54.608Z,96658
2015-02-23T10:52:03.418Z,96643
2015-02-23T10:52:12.176Z,96642
2015-02-23T10:52:20.970Z,96639
2015-02-23T10:52:29.901Z,96640
2015-02-23T10:52:38.626Z,96643
2015-02-23T10:52:47.876Z,96646
2015-02-23T10:53:01.110Z,96649
2015-02-23T10:53:10.019Z,96643
2015-02-23T10:53:19.666Z,96649
2015-02-23T10:53:28.640Z,96645
2015-02-23T10:53:37.559Z,96653
2015-02-23T10:53:47.254Z,96647
2015-02-23T10:53:56.189Z,96648
2015-02-23T10:54:05.320Z,96650
2015-02-23T10:54:14.869Z,96646
2015-02-23T10:54:23.667Z,96643
2015-02-23T10:54:32.626Z,96646
2015-02-23T10:54:41.721Z,96649
2015-02-23T10:54:50.778Z,96649
2015-02-23T10:54:59.757Z,96646
2015-02-23T10:55:08.714Z,96646
2015-02-23T10:55:17.889Z,96642
2015-02-23T10:55:27.129Z,96650
2015-02-23T10:55:36.175Z,96644
2015-02-23T10:55:45.240Z,96644
2015-02-23T10:55:54.159Z,96650
2015-02-23T10:56:03.161Z,96662
2015-02-23T10:56:12.128Z,96641
2015-02-23T10:56:21.081Z,96649
2015-02-23T10:56:29.891Z,96652
2015-02-23T10:56:38.798Z,96652
2015-02-23T10:56:47.893Z,96638
2015-02-23T10:56:57.635Z,96644
2015-02-23T10:57:06.613Z,96649
2015-02-23T10:57:16.611Z,96641
2015-02-23T10:57:25.533Z,96661
2015-02-23T10:57:34.569Z,96649
2015-02-23T10:57:43.780Z,96652
2015-02-23T10:57:52.949Z,96652
2015-02-23T10:58:02.020Z,96641
2015-02-23T10:58:11.038Z,96649
2015-02-23T10:58:20.145Z,96649
2015-02-23T10:58:29.184Z,96647
2015-02-23T10:58:38.178Z,96644
2015-02-23T10:58:47.013Z,96642
2015-02-23T10:58:56.054Z,96642
2015-02-23T10:59:05.004Z,96642
2015-02-23T10:59:14.746Z,96649
2015-02-23T10:59:23.717Z,96654
2015-02-23T10:59:32.849Z,96648
2015-02-23T10:59:41.737Z,96651
2015-02-23T11:00:47.971Z,96658
2015-02-23T11:00:56.901Z,96655
2015-02-23T11:01:05.880Z,96655
2015-02-23T11:01:14.920Z,96649
2015-02-23T11:01:23.883Z,96660
2015-02-23T11:01:32.904Z,96655
2015-02-23T11:01:42.597Z,96655
2015-02-23T11:01:51.613Z,96658
2015-02-23T11:02:00.676Z,96660
2015-02-23T11:02:10.062Z,96654
2015-02-23T11:02:18.985Z,96663
2015-02-23T11:02:27.983Z,96652
2015-02-23T11:02:36.931Z,96658
2015-02-23T11:02:45.828Z,96658
2015-02-23T11:02:55.121Z,96667
2015-02-23T11:03:04.288Z,96661
2015-02-23T11:03:13.270Z,96673
2015-02-23T11:03:22.257Z,96661
2015-02-23T11:03:31.346Z,96670
2015-02-23T11:03:40.345Z,96646
2015-02-23T11:03:49.363Z,96658
2015-02-23T11:03:58.325Z,96658
2015-02-23T11:04:07.432Z,96669
2015-02-23T11:04:16.518Z,96658
2015-02-23T11:04:25.497Z,96664
2015-02-23T11:04:34.628Z,96658
2015-02-23T11:04:43.466Z,96667
2015-02-23T11:04:52.362Z,96652
2015-02-23T11:05:01.380Z,96652
2015-02-23T11:05:10.451Z,96661
2015-02-23T11:05:19.460Z,96661
2015-02-23T11:05:28.394Z,96650
2015-02-23T11:05:38.244Z,96653
2015-02-23T11:05:47.162Z,96653
2015-02-23T11:05:56.238Z,96650
2015-02-23T11:06:05.387Z,96664
2015-02-23T11:06:14.367Z,96655
2015-02-23T11:06:23.491Z,96658
2015-02-23T11:06:32.493Z,96652
2015-02-23T11:06:42.195Z,96664
2015-02-23T11:06:51.392Z,96650
2015-02-23T11:07:01.142Z,96638
2015-02-23T11:07:10.820Z,96647
2015-02-23T11:07:19.874Z,96647
2015-02-23T11:07:28.867Z,96647
2015-02-23T11:07:37.729Z,96659
2015-02-23T11:07:46.958Z,96644
2015-02-23T11:07:55.958Z,96645
2015-02-23T11:08:05.060Z,96642
2015-02-23T11:08:14.279Z,96649
2015-02-23T11:08:23.792Z,96641
2015-02-23T11:08:33.203Z,96635
2015-02-23T11:08:42.572Z,96647
2015-02-23T11:08:52.260Z,96648
2015-02-23T11:09:01.621Z,96639
2015-02-23T11:09:11.081Z,96648
2015-02-23T11:09:20.549Z,96648
2015-02-23T11:09:29.966Z,96642
2015-02-23T11:09:38.933Z,96645
2015-02-23T11:09:48.656Z,96651
2015-02-23T11:09:57.565Z,96638
2015-02-23T11:10:06.456Z,96635
2015-02-23T11:10:15.466Z,96644
2015-02-23T11:10:24.490Z,96638
2015-02-23T11:10:33.615Z,96647
2015-02-23T11:10:42.615Z,96649
2015-02-23T11:10:51.488Z,96649
2015-02-23T11:11:00.400Z,96635
2015-02-23T11:11:09.344Z,96644
2015-02-23T11:11:18.263Z,96649
2015-02-23T11:11:27.397Z,96645
2015-02-23T11:11:36.627Z,96645
2015-02-23T11:11:45.575Z,96636
2015-02-23T11:11:54.597Z,96648
2015-02-23T11:12:03.733Z,96642
2015-02-23T11:12:12.554Z,96642
2015-02-23T11:12:21.559Z,96636
2015-02-23T11:12:30.649Z,96633
2015-02-23T11:12:39.630Z,96636
2015-02-23T11:12:49.297Z,96633
2015-02-23T11:12:58.584Z,96639
2015-02-23T11:13:07.891Z,96634
2015-02-23T11:13:16.754Z,96639
2015-02-23T11:13:25.749Z,96637
2015-02-23T11:13:34.696Z,96637
2015-02-23T11:13:43.595Z,96638
2015-02-23T11:13:53.212Z,96629
2015-02-23T11:14:02.302Z,96626
2015-02-23T11:14:11.326Z,96636
2015-02-23T11:14:20.393Z,96633
2015-02-23T11:14:29.422Z,96633
2015-02-23T11:14:38.499Z,96630
2015-02-23T11:14:47.359Z,96636
2015-02-23T11:14:56.404Z,96635
2015-02-23T11:15:05.308Z,96634
2015-02-23T11:15:14.334Z,96633
2015-02-23T11:15:23.385Z,96635
2015-02-23T11:15:32.522Z,96632
2015-02-23T11:15:41.653Z,96629
2015-02-23T11:15:51.899Z,96629
2015-02-23T11:16:00.839Z,96640
2015-02-23T11:16:09.799Z,96637
2015-02-23T11:16:18.902Z,96634
2015-02-23T11:16:27.841Z,96645
2015-02-23T11:16:37.491Z,96645
2015-02-23T11:16:46.495Z,96636
2015-02-23T11:16:56.196Z,96642
2015-02-23T11:17:07.090Z,96642
2015-02-23T11:17:17.500Z,96636
2015-02-23T11:17:27.050Z,96637
2015-02-23T11:17:36.264Z,96643
2015-02-23T11:17:45.332Z,96650
2015-02-23T11:17:54.334Z,96635
2015-02-23T11:18:03.340Z,96636
2015-02-23T11:18:12.243Z,96636
2015-02-23T11:18:21.607Z,96639
2015-02-23T11:18:30.731Z,96639
2015-02-23T11:18:40.438Z,96633
2015-02-23T11:18:49.661Z,96645
2015-02-23T11:18:58.817Z,96642
2015-02-23T11:19:07.710Z,96630
2015-02-23T11:19:16.964Z,96639
2015-02-23T11:19:26.165Z,96642
2015-02-23T11:19:35.065Z,96640
2015-02-23T11:19:44.414Z,96637
2015-02-23T11:19:53.351Z,96643
2015-02-23T11:20:02.399Z,96631
2015-02-23T11:20:11.466Z,96634
2015-02-23T11:20:20.421Z,96643
2015-02-23T11:20:29.368Z,96634
2015-02-23T11:20:38.502Z,96649
2015-02-23T11:20:47.377Z,96641
2015-02-23T11:20:56.260Z,96640
2015-02-23T11:21:05.293Z,96637
2015-02-23T11:21:14.103Z,96637
2015-02-23T11:21:23.263Z,96639
2015-02-23T11:21:33.110Z,96637
2015-02-23T11:21:42.201Z,96631
2015-02-23T11:21:51.036Z,96646
2015-02-23T11:21:59.894Z,96629
2015-02-23T11:22:08.804Z,96638
2015-02-23T11:22:17.705Z,96641
2015-02-23T11:22:26.480Z,96639
2015-02-23T11:22:36.041Z,96645
2015-02-23T11:22:44.896Z,96636
2015-02-23T11:22:53.688Z,96642
2015-02-23T11:23:02.685Z,96645
2015-02-23T11:23:11.864Z,96631
2015-02-23T11:23:20.832Z,96633
2015-02-23T11:23:29.834Z,96642
2015-02-23T11:23:38.639Z,96633
2015-02-23T11:23:47.408Z,96635
2015-02-23T11:23:56.176Z,96632
2015-02-23T11:24:04.926Z,96628
2015-02-23T11:24:13.653Z,96636
2015-02-23T11:24:22.467Z,96636
2015-02-23T11:24:32.095Z,96639
2015-02-23T11:24:41.346Z,96631
2015-02-23T11:24:50.169Z,96634
2015-02-23T11:24:59.009Z,96631
2015-02-23T11:25:07.824Z,96625
2015-02-23T11:25:16.676Z,96631
2015-02-23T11:25:25.585Z,96631
2015-02-23T11:25:34.683Z,96626
2015-02-23T11:25:43.497Z,96628
2015-02-23T11:25:52.390Z,96629
2015-02-23T11:26:01.220Z,96629
2015-02-23T11:26:10.256Z,96626
2015-02-23T11:26:20.003Z,96630
2015-02-23T11:26:28.749Z,96621
2015-02-23T11:26:37.650Z,96618
2015-02-23T11:26:46.479Z,96633
2015-02-23T11:26:55.387Z,96622
2015-02-23T11:27:04.316Z,96631
2015-02-23T11:27:13.275Z,96637
2015-02-23T11:27:22.354Z,96622
2015-02-23T11:27:31.372Z,96625
2015-02-23T11:27:40.863Z,96634
2015-02-23T11:27:49.836Z,96631
2015-02-23T11:27:58.797Z,96634
2015-02-23T11:28:07.633Z,96622
2015-02-23T11:28:16.541Z,96634
2015-02-23T11:28:25.374Z,96625
2015-02-23T11:28:34.275Z,96616
2015-02-23T11:28:43.019Z,96639
2015-02-23T11:28:52.049Z,96623
2015-02-23T11:29:01.814Z,96623
2015-02-23T11:29:10.894Z,96623
2015-02-23T11:29:19.886Z,96625
2015-02-23T11:29:28.790Z,96622
2015-02-23T11:29:37.712Z,96620
2015-02-23T11:29:46.712Z,96611
2015-02-23T11:29:55.461Z,96624
2015-02-23T11:30:04.349Z,96624
2015-02-23T11:30:13.225Z,96618
2015-02-23T11:30:22.034Z,96627
2015-02-23T11:30:31.067Z,96622
2015-02-23T11:30:40.027Z,96631
2015-02-23T11:30:49.018Z,96631
2015-02-23T11:30:57.854Z,96628
2015-02-23T11:31:06.715Z,96634
2015-02-23T11:31:15.650Z,96623
2015-02-23T11:31:24.481Z,96620
2015-02-23T11:31:33.231Z,96620
2015-02-23T11:31:42.109Z,96609
2015-02-23T11:31:51.026Z,96635
2015-02-23T11:31:59.897Z,96632
2015-02-23T11:32:08.899Z,96620
2015-02-23T11:32:17.848Z,96617
2015-02-23T11:32:26.906Z,96620
2015-02-23T11:32:36.312Z,96637
2015-02-23T11:32:45.070Z,96614
2015-02-23T11:32:54.114Z,96617
2015-02-23T11:33:03.051Z,96626
2015-02-23T11:33:11.917Z,96624
2015-02-23T11:33:20.721Z,96630
2015-02-23T11:33:29.541Z,96621
2015-02-23T11:33:38.445Z,96618
2015-02-23T11:33:47.230Z,96627
2015-02-23T11:33:56.141Z,96616
2015-02-23T11:34:05.236Z,96618
2015-02-23T11:34:14.326Z,96616
2015-02-23T11:34:23.074Z,96618
2015-02-23T11:34:32.036Z,96627
2015-02-23T11:34:40.776Z,96618
2015-02-23T11:34:50.005Z,96624
2015-02-23T11:34:58.890Z,96621
2015-02-23T11:35:07.810Z,96612
2015-02-23T11:35:16.711Z,96624
2015-02-23T11:35:26.402Z,96618
2015-02-23T11:35:35.383Z,96613
2015-02-23T11:35:44.448Z,96616
2015-02-23T11:35:53.395Z,96610
2015-02-23T11:36:02.273Z,96624
2015-02-23T11:36:11.078Z,96615
2015-02-23T11:36:19.845Z,96615
2015-02-23T11:36:28.644Z,96618
2015-02-23T11:36:37.524Z,96630
2015-02-23T11:36:46.489Z,96621
2015-02-23T11:36:55.503Z,96612
2015-02-23T11:37:05.148Z,96618
2015-02-23T11:37:14.167Z,96613
2015-02-23T11:37:23.043Z,96616
2015-02-23T11:37:31.847Z,96619
2015-02-23T11:37:40.878Z,96610
2015-02-23T11:37:49.816Z,96613
2015-02-23T11:37:58.791Z,96610
2015-02-23T11:38:07.830Z,96622
2015-02-23T11:38:16.658Z,96628
2015-02-23T11:38:25.755Z,96619
2015-02-23T11:38:34.707Z,96619
2015-02-23T11:38:43.657Z,96619
2015-02-23T11:38:52.852Z,96616
2015-02-23T11:39:02.533Z,96628
2015-02-23T11:39:11.280Z,96619
2015-02-23T11:39:20.116Z,96624
2015-02-23T11:39:29.157Z,96621
2015-02-23T11:39:38.050Z,96618
2015-02-23T11:39:47.573Z,96624
2015-02-23T11:39:56.641Z,96618
2015-02-23T11:40:05.479Z,96630
2015-02-23T11:40:14.579Z,96621
2015-02-23T11:40:23.746Z,96627
2015-02-23T11:40:32.906Z,96618
2015-02-23T11:40:42.006Z,96630
2015-02-23T11:40:51.002Z,96624
2015-02-23T11:41:00.748Z,96615
2015-02-23T11:41:10.522Z,96620
2015-02-23T11:41:19.664Z,96620
2015-02-23T11:41:28.605Z,96626
2015-02-23T11:41:37.620Z,96617
2015-02-23T11:41:47.246Z,96620
2015-02-23T11:41:56.076Z,96626
2015-02-23T11:42:05.263Z,96617
2015-02-23T11:42:14.263Z,96620
2015-02-23T11:42:23.397Z,96617
2015-02-23T11:42:32.261Z,96614
2015-02-23T11:42:41.198Z,96628
2015-02-23T11:42:50.085Z,96616
2015-02-23T11:42:59.729Z,96625
2015-02-23T11:43:08.806Z,96619
2015-02-23T11:43:17.761Z,96616
2015-02-23T11:43:26.855Z,96613
2015-02-23T11:43:35.609Z,96616
2015-02-23T11:43:44.551Z,96622
2015-02-23T11:43:53.405Z,96617
2015-02-23T11:44:02.479Z,96623
2015-02-23T11:44:11.535Z,96617
2015-02-23T11:44:20.520Z,96614
2015-02-23T11:44:29.482Z,96617
2015-02-23T11:44:38.716Z,96620
2015-02-23T11:44:47.855Z,96605
2015-02-23T11:44:56.878Z,96608
2015-02-23T11:45:05.869Z,96609
2015-02-23T11:45:14.833Z,96615
2015-02-23T11:45:23.714Z,96618
2015-02-23T11:45:32.831Z,96615
2015-02-23T11:45:41.827Z,96612
2015-02-23T11:45:50.977Z,96612
2015-02-23T11:46:00.206Z,96609
2015-02-23T11:46:09.357Z,96624
2015-02-23T11:46:18.343Z,96624
2015-02-23T11:46:27.284Z,96618
2015-02-23T11:46:36.405Z,96618
2015-02-23T11:46:45.381Z,96615
2015-02-23T11:46:55.050Z,96615
2015-02-23T11:47:04.262Z,96630
2015-02-23T12:20:44.678Z,96605
2015-02-23T12:20:54.029Z,96600
2015-02-23T12:21:03.334Z,96592
2015-02-23T12:21:12.717Z,96608
2015-02-23T12:21:22.285Z,96609
2015-02-23T12:21:31.670Z,96604
2015-02-23T12:21:41.178Z,96604
2015-02-23T12:21:50.523Z,96611
2015-02-23T12:21:59.867Z,96603
2015-02-23T12:22:08.905Z,96597
2015-02-23T12:22:17.917Z,96607
2015-02-23T12:22:27.042Z,96592
2015-02-23T12:22:36.499Z,96598
2015-02-23T12:22:45.820Z,96601
2015-02-23T12:22:55.234Z,96599
2015-02-23T12:23:04.707Z,96602
2015-02-23T12:23:13.942Z,96602
2015-02-23T12:23:23.804Z,96603
2015-02-23T12:23:33.332Z,96603
2015-02-23T12:23:42.774Z,96597
2015-02-23T12:23:52.125Z,96606
2015-02-23T12:24:01.436Z,96606
2015-02-23T12:24:10.976Z,96603
2015-02-23T12:24:20.472Z,96603
2015-02-23T12:24:29.967Z,96615
2015-02-23T12:24:39.302Z,96612
2015-02-23T12:24:48.879Z,96601
2015-02-23T12:24:58.300Z,96603
2015-02-23T12:25:07.824Z,96606
2015-02-23T12:25:17.998Z,96609
2015-02-23T12:25:27.493Z,96606
2015-02-23T12:25:37.200Z,96609
2015-02-23T12:25:46.107Z,96612
2015-02-23T12:25:54.905Z,96609
2015-02-23T12:26:03.859Z,96609
2015-02-23T12:26:13.531Z,96609
2015-02-23T12:26:22.465Z,96603
2015-02-23T12:26:31.402Z,96600
2015-02-23T12:26:40.365Z,96598
2015-02-23T12:26:49.342Z,96609
2015-02-23T12:26:58.372Z,96606
2015-02-23T12:27:08.132Z,96607
2015-02-23T12:27:17.254Z,96604
2015-02-23T12:27:26.160Z,96606
2015-02-23T12:27:35.169Z,96606
2015-02-23T12:27:43.985Z,96603
2015-02-23T12:27:53.154Z,96609
2015-02-23T12:28:02.236Z,96609
2015-02-23T12:28:11.025Z,96612
2015-02-23T12:29:19.855Z,96610
2015-02-23T12:29:29.595Z,96598
2015-02-23T12:29:38.552Z,96608
2015-02-23T12:29:47.422Z,96611
2015-02-23T12:29:56.417Z,96607
2015-02-23T12:30:05.734Z,96611
2015-02-23T12:30:14.718Z,96613
2015-02-23T12:30:23.643Z,96611
2015-02-23T12:30:33.227Z,96614